Time;durP1;ratioP1;P1;durP2;ratioP2;P2;SDS_P1;SDS_P2;PMS_P1;PMS_P2;Temp;Humidity;BMP_temperature;BMP_pressure;BME280_temperature;BME280_humidity;BME280_pressure;Samples;Min_cycle;Max_cycle;Signal;HPM_P1;HPM_P2
2022/08/26 00:01:32;;;;;;;17.80;10.45;;;;;;;25.46;41.58;100069.28;5087351;28;20087;-68
2022/08/26 00:03:58;;;;;;;17.20;9.75;;;;;;;25.39;41.80;100067.38;5087155;28;20017;-70
2022/08/26 00:06:23;;;;;;;19.85;10.70;;;;;;;25.34;41.83;100069.03;5087444;28;20027;-71
2022/08/26 00:08:49;;;;;;;16.65;9.90;;;;;;;25.32;42.03;100069.22;5087368;28;20025;-71
2022/08/26 00:11:15;;;;;;;16.90;11.27;;;;;;;25.31;42.16;100069.44;5087448;28;20078;-70
2022/08/26 00:13:40;;;;;;;16.08;10.13;;;;;;;25.31;41.78;100066.72;5086995;28;20062;-69
2022/08/26 00:16:07;;;;;;;19.13;10.30;;;;;;;25.27;42.04;100072.53;5087388;28;20103;-69
2022/08/26 00:18:33;;;;;;;18.05;10.38;;;;;;;25.23;42.45;100065.88;5086435;28;20024;-70
2022/08/26 00:20:59;;;;;;;16.30;10.45;;;;;;;25.23;42.14;100071.28;5078819;28;20249;-70
2022/08/26 00:23:25;;;;;;;17.73;10.07;;;;;;;25.25;42.17;100074.63;5070048;28;20070;-69
2022/08/26 00:25:51;;;;;;;20.10;10.95;;;;;;;25.26;42.29;100064.63;5083171;28;20241;-69
2022/08/26 00:28:17;;;;;;;24.58;10.93;;;;;;;25.26;42.37;100076.28;5091180;28;20087;-70
2022/08/26 00:30:46;;;;;;;20.15;10.00;;;;;;;25.28;42.03;100071.50;5091087;28;20093;-69
2022/08/26 00:33:12;;;;;;;15.27;10.48;;;;;;;25.28;42.34;100078.81;5090772;28;20213;-69
2022/08/26 00:35:38;;;;;;;15.88;10.50;;;;;;;25.22;42.27;100072.31;5091059;28;20101;-71
2022/08/26 00:38:03;;;;;;;17.08;10.45;;;;;;;25.21;42.56;100073.38;5090947;28;20039;-70
2022/08/26 00:40:35;;;;;;;19.67;10.07;;;;;;;25.26;42.29;100078.19;5090744;28;20046;-69
2022/08/26 00:43:05;;;;;;;17.65;11.50;;;;;;;25.26;42.29;100075.47;5090840;28;20088;-69
2022/08/26 00:45:38;;;;;;;15.20;9.93;;;;;;;25.24;42.11;100086.50;5091303;28;20113;-71
2022/08/26 00:48:06;;;;;;;16.58;10.15;;;;;;;25.20;42.62;100087.09;5090742;28;20028;-69
2022/08/26 00:50:40;;;;;;;17.83;9.73;;;;;;;25.15;42.47;100085.03;5090516;28;20094;-68
2022/08/26 00:53:20;;;;;;;15.27;9.93;;;;;;;25.18;42.67;100092.75;5090326;28;20156;-71
2022/08/26 00:55:52;;;;;;;15.00;10.05;;;;;;;25.15;42.62;100082.31;5090618;28;20287;-70
2022/08/26 00:58:18;;;;;;;14.50;9.77;;;;;;;25.11;42.81;100075.63;5090555;28;20027;-69
2022/08/26 01:00:43;;;;;;;13.75;9.57;;;;;;;25.08;42.60;100079.59;5090868;28;20023;-68
2022/08/26 01:03:10;;;;;;;17.17;9.95;;;;;;;25.08;42.98;100078.72;5090185;28;20600;-68
2022/08/26 01:05:39;;;;;;;13.05;9.70;;;;;;;25.05;42.90;100076.47;5089768;28;20016;-70
2022/08/26 01:08:04;;;;;;;17.63;11.02;;;;;;;25.08;42.91;100081.44;5090367;28;20186;-70
2022/08/26 01:10:30;;;;;;;18.45;9.63;;;;;;;25.09;42.91;100066.88;5080477;28;20028;-69
2022/08/26 01:13:05;;;;;;;13.60;9.32;;;;;;;25.11;42.64;100070.22;5075806;28;20027;-71
2022/08/26 01:15:41;;;;;;;16.38;10.05;;;;;;;25.08;42.76;100073.31;5090609;28;20027;-69
2022/08/26 01:18:07;;;;;;;18.35;9.77;;;;;;;25.05;42.70;100073.75;5090118;28;20029;-69
2022/08/26 01:20:54;;;;;;;16.25;9.80;;;;;;;24.99;42.93;100070.81;5090209;28;20032;-69
2022/08/26 01:23:20;;;;;;;16.90;10.27;;;;;;;24.96;43.13;100070.38;5089873;28;20024;-70
2022/08/26 01:25:50;;;;;;;19.67;9.85;;;;;;;24.95;43.34;100071.41;5089858;28;20039;-69
2022/08/26 01:28:21;;;;;;;18.10;10.63;;;;;;;24.90;43.05;100073.88;5090103;28;20083;-69
2022/08/26 01:30:50;;;;;;;22.10;10.57;;;;;;;24.85;43.21;100069.09;5089985;28;20096;-70
2022/08/26 01:33:22;;;;;;;17.60;9.80;;;;;;;24.88;43.32;100074.09;5089421;28;20016;-69
2022/08/26 01:35:48;;;;;;;22.52;10.70;;;;;;;24.86;43.52;100078.88;5084231;28;20028;-71
2022/08/26 01:38:14;;;;;;;15.40;10.00;;;;;;;24.84;43.27;100080.94;5089282;28;20020;-70
2022/08/26 01:40:42;;;;;;;15.35;9.98;;;;;;;24.83;43.48;100073.88;5089865;28;20028;-71
2022/08/26 01:43:13;;;;;;;15.18;9.98;;;;;;;24.81;43.77;100074.06;5089739;28;20004;-69
2022/08/26 01:45:40;;;;;;;14.98;10.02;;;;;;;24.83;43.69;100076.56;5089836;28;20136;-70
2022/08/26 01:48:10;;;;;;;17.60;9.82;;;;;;;24.88;43.55;100078.66;5088609;28;20067;-72
2022/08/26 01:50:37;;;;;;;16.73;10.18;;;;;;;24.92;43.09;100079.94;5089642;28;20028;-71
2022/08/26 01:53:10;;;;;;;16.33;9.40;;;;;;;24.92;43.14;100077.22;5089122;28;20051;-70
2022/08/26 01:55:38;;;;;;;15.93;9.13;;;;;;;24.90;43.57;100082.00;5089266;28;20032;-71
2022/08/26 01:58:11;;;;;;;15.48;9.95;;;;;;;24.82;43.44;100080.31;5089268;28;20054;-70
2022/08/26 02:00:37;;;;;;;16.45;9.80;;;;;;;24.79;43.66;100073.44;5072923;28;20058;-71
2022/08/26 02:03:15;;;;;;;16.50;10.60;;;;;;;24.83;43.60;100081.97;5069347;28;20033;-69
2022/08/26 02:05:44;;;;;;;25.33;10.32;;;;;;;24.83;43.52;100084.69;5069363;28;20036;-69
2022/08/26 02:08:10;;;;;;;20.83;10.50;;;;;;;24.82;43.66;100080.31;5072677;28;20244;-68
2022/08/26 02:10:36;;;;;;;15.65;9.52;;;;;;;24.80;43.46;100087.78;5088697;28;20020;-69
2022/08/26 02:13:02;;;;;;;14.52;10.63;;;;;;;24.75;43.98;100085.69;5088615;28;20059;-69
2022/08/26 02:15:28;;;;;;;16.13;10.25;;;;;;;24.75;44.00;100076.75;5089197;28;20024;-67
2022/08/26 02:17:53;;;;;;;15.80;9.88;;;;;;;24.75;43.70;100082.97;5088963;28;20138;-69
2022/08/26 02:20:19;;;;;;;13.73;9.90;;;;;;;24.75;43.98;100082.16;5089059;28;20024;-70
2022/08/26 02:22:45;;;;;;;19.95;10.63;;;;;;;24.73;43.65;100079.63;5088966;28;20024;-70
2022/08/26 02:25:30;;;;;;;17.02;10.32;;;;;;;24.68;44.22;100077.50;5074876;28;20028;-71
2022/08/26 02:27:55;;;;;;;20.40;10.23;;;;;;;24.64;43.99;100078.94;5068830;28;20032;-70
2022/08/26 02:30:32;;;;;;;16.67;10.35;;;;;;;24.69;43.99;100086.47;5068893;28;20024;-69
2022/08/26 02:33:01;;;;;;;21.63;11.00;;;;;;;24.67;43.99;100075.03;5068551;28;20021;-70
2022/08/26 02:35:27;;;;;;;19.50;10.88;;;;;;;24.62;44.31;100077.47;5068709;28;20109;-70
2022/08/26 02:37:53;;;;;;;23.85;12.32;;;;;;;24.63;44.20;100079.16;5068628;28;20021;-70
2022/08/26 02:40:24;;;;;;;19.50;11.00;;;;;;;24.66;44.35;100076.06;5068628;28;20173;-70
2022/08/26 02:42:49;;;;;;;23.17;10.73;;;;;;;24.63;44.20;100071.84;5087053;28;20028;-69
2022/08/26 02:45:17;;;;;;;21.95;11.55;;;;;;;24.65;44.34;100086.03;5088476;28;20124;-69
2022/08/26 02:47:43;;;;;;;20.02;11.35;;;;;;;24.58;44.13;100078.91;5088730;28;20165;-69
2022/08/26 02:50:09;;;;;;;19.80;10.73;;;;;;;24.52;44.38;100077.84;5088759;28;20194;-71
2022/08/26 02:52:35;;;;;;;23.88;11.38;;;;;;;24.52;44.37;100084.09;5088120;28;20028;-71
2022/08/26 02:55:01;;;;;;;23.08;11.45;;;;;;;24.57;44.25;100085.34;5088374;28;20030;-68
2022/08/26 02:57:26;;;;;;;18.05;10.35;;;;;;;24.56;44.36;100081.81;5088276;28;20035;-71
2022/08/26 02:59:52;;;;;;;19.65;11.85;;;;;;;24.57;44.23;100088.06;5088616;28;20304;-70
2022/08/26 03:02:17;;;;;;;18.42;11.05;;;;;;;24.55;44.81;100085.56;5088237;28;20020;-69
2022/08/26 03:04:43;;;;;;;24.15;12.15;;;;;;;24.55;44.69;100087.44;5087690;28;20080;-69
2022/08/26 03:07:08;;;;;;;26.10;11.98;;;;;;;24.56;44.83;100089.94;5087699;28;20039;-68
2022/08/26 03:09:34;;;;;;;19.98;12.32;;;;;;;24.57;44.72;100085.34;5088093;28;20024;-71
2022/08/26 03:11:59;;;;;;;27.05;11.57;;;;;;;24.59;44.58;100091.41;5088100;28;20049;-70
2022/08/26 03:14:25;;;;;;;26.55;12.55;;;;;;;24.61;44.62;100092.03;5087118;28;20023;-69
2022/08/26 03:16:53;;;;;;;29.17;12.60;;;;;;;24.62;44.81;100086.44;5087691;28;20032;-72
2022/08/26 03:19:23;;;;;;;26.38;12.98;;;;;;;24.65;44.63;100098.72;5087453;28;20131;-69
2022/08/26 03:21:50;;;;;;;27.40;13.33;;;;;;;24.64;44.49;100086.22;5074476;28;20066;-70
2022/08/26 03:24:16;;;;;;;22.98;12.73;;;;;;;24.65;44.69;100094.13;5067691;28;20087;-70
2022/08/26 03:26:42;;;;;;;31.02;13.27;;;;;;;24.65;45.14;100093.31;5067693;28;20021;-70
2022/08/26 03:31:52;;;;;;;23.25;12.43;;;;;;;24.62;44.99;100097.28;5087731;28;20027;-69
2022/08/26 03:34:18;;;;;;;26.50;12.30;;;;;;;24.67;44.86;100092.06;5087901;28;20133;-69
2022/08/26 03:36:44;;;;;;;21.20;12.85;;;;;;;24.71;44.91;100099.81;5088041;28;20016;-71
2022/08/26 03:39:11;;;;;;;25.52;13.27;;;;;;;24.77;44.68;100104.44;5087230;28;20097;-69
2022/08/26 03:41:38;;;;;;;22.27;13.00;;;;;;;24.80;44.76;100093.19;5087404;28;20028;-71
2022/08/26 03:44:06;;;;;;;21.88;12.52;;;;;;;24.81;44.80;100095.72;5087014;28;20004;-69
2022/08/26 03:46:32;;;;;;;29.70;13.60;;;;;;;24.82;44.67;100094.69;5087572;28;20076;-69
2022/08/26 03:48:59;;;;;;;27.50;13.05;;;;;;;24.85;44.79;100088.03;5087589;28;20252;-70
2022/08/26 03:51:25;;;;;;;28.30;13.90;;;;;;;24.87;44.80;100093.22;5087640;28;20024;-70
2022/08/26 03:53:50;;;;;;;25.58;13.95;;;;;;;24.86;45.02;100089.69;5086968;28;20032;-69
2022/08/26 03:56:16;;;;;;;30.02;16.42;;;;;;;24.91;44.99;100098.06;5086961;28;20031;-69
2022/08/26 03:58:43;;;;;;;32.03;15.70;;;;;;;24.90;45.12;100096.38;5086613;28;20028;-71
2022/08/26 04:01:13;;;;;;;36.65;15.23;;;;;;;24.93;45.05;100098.66;5087466;28;20237;-71
2022/08/26 04:03:56;;;;;;;33.88;14.95;;;;;;;24.95;45.07;100107.44;5083423;28;20008;-69
2022/08/26 04:06:23;;;;;;;31.80;14.23;;;;;;;24.98;45.06;100104.31;5087110;28;20195;-72
2022/08/26 04:08:49;;;;;;;25.60;13.38;;;;;;;24.96;45.01;100100.97;5069298;28;20123;-72
2022/08/26 04:11:24;;;;;;;30.92;14.13;;;;;;;24.96;45.92;100103.69;5072299;28;20079;-70
2022/08/26 04:13:49;;;;;;;28.30;13.43;;;;;;;24.95;45.47;100107.44;5084241;28;20241;-70
2022/08/26 04:16:16;;;;;;;26.55;13.68;;;;;;;24.97;45.48;100105.34;5087353;28;20048;-71
2022/08/26 04:18:42;;;;;;;28.85;13.35;;;;;;;24.96;45.47;100100.16;5087089;28;20020;-68
2022/08/26 04:21:08;;;;;;;33.50;12.65;;;;;;;25.01;45.48;100111.19;5087035;28;20033;-71
2022/08/26 04:23:35;;;;;;;24.05;13.20;;;;;;;25.03;45.53;100111.00;5086775;28;20063;-70
2022/08/26 04:26:01;;;;;;;24.77;13.45;;;;;;;25.05;45.46;100111.66;5069185;28;20133;-68
2022/08/26 04:28:28;;;;;;;25.85;12.32;;;;;;;25.10;45.60;100109.16;5087136;28;20028;-68
2022/08/26 04:30:54;;;;;;;24.13;12.38;;;;;;;25.16;45.73;100113.78;5087100;28;20026;-68
2022/08/26 04:33:20;;;;;;;27.45;12.38;;;;;;;25.20;45.80;100108.78;5086799;28;20029;-70
2022/08/26 04:35:46;;;;;;;25.42;13.13;;;;;;;25.22;45.93;100107.53;5087120;28;20276;-69
2022/08/26 04:38:12;;;;;;;37.45;13.32;;;;;;;25.26;46.31;100113.38;5087103;28;20055;-69
2022/08/26 04:40:43;;;;;;;31.33;13.55;;;;;;;25.28;46.05;100106.72;5087132;28;20012;-70
2022/08/26 04:43:08;;;;;;;27.70;12.30;;;;;;;25.29;46.55;100113.81;5086664;28;20021;-70
2022/08/26 04:45:39;;;;;;;29.70;13.07;;;;;;;25.37;46.52;100109.22;5086955;28;20035;-71
2022/08/26 04:48:05;;;;;;;27.98;15.25;;;;;;;25.46;46.84;100110.75;5086958;28;20028;-71
2022/08/26 04:50:31;;;;;;;25.55;14.55;;;;;;;25.49;46.64;100118.47;5086880;28;20039;-71
2022/08/26 04:52:57;;;;;;;25.00;12.68;;;;;;;25.51;46.73;100113.69;5075333;28;20275;-69
2022/08/26 04:55:23;;;;;;;28.40;13.32;;;;;;;25.54;46.30;100115.16;5056975;28;20120;-71
2022/08/26 04:57:49;;;;;;;23.38;12.85;;;;;;;25.59;45.99;100115.34;5086510;28;20038;-70
2022/08/26 05:00:15;;;;;;;22.60;12.48;;;;;;;25.62;45.88;100106.81;5084933;28;20029;-70
2022/08/26 05:02:40;;;;;;;23.95;10.38;;;;;;;25.66;45.23;100112.69;5086825;28;20024;-70
2022/08/26 05:05:06;;;;;;;22.63;11.27;;;;;;;25.71;45.11;100116.44;5086796;28;20016;-71
2022/08/26 05:07:33;;;;;;;18.33;11.32;;;;;;;25.81;45.32;100113.28;5086209;28;20028;-70
2022/08/26 05:09:59;;;;;;;32.88;10.55;;;;;;;26.08;44.22;100117.91;5088589;28;20089;-69
2022/08/26 05:12:26;;;;;;;17.25;9.88;;;;;;;26.29;43.49;100112.28;5089919;28;20109;-69
2022/08/26 05:14:52;;;;;;;20.15;10.50;;;;;;;26.52;42.88;100118.31;5089480;28;20024;-70
2022/08/26 05:17:17;;;;;;;15.48;9.48;;;;;;;26.66;42.48;100122.66;5089862;28;20046;-71
2022/08/26 05:19:43;;;;;;;15.43;8.95;;;;;;;26.78;42.25;100115.50;5090044;28;20036;-70
2022/08/26 05:22:08;;;;;;;15.70;9.77;;;;;;;26.91;41.82;100125.50;5089956;28;20103;-71
2022/08/26 05:24:35;;;;;;;21.75;8.93;;;;;;;27.07;41.66;100116.06;5089933;28;20043;-69
2022/08/26 05:27:01;;;;;;;14.38;8.63;;;;;;;27.18;41.09;100119.13;5089898;28;20062;-68
2022/08/26 05:29:27;;;;;;;14.32;8.75;;;;;;;27.20;40.41;100126.03;5089830;28;20041;-69
2022/08/26 05:31:53;;;;;;;17.98;8.77;;;;;;;27.24;40.25;100129.97;5079935;28;20138;-68
2022/08/26 05:34:19;;;;;;;13.60;8.65;;;;;;;27.33;39.81;100129.75;5090028;28;20032;-70
2022/08/26 05:36:45;;;;;;;15.43;8.68;;;;;;;27.42;39.79;100126.53;5089582;28;20039;-70
2022/08/26 05:39:11;;;;;;;11.15;7.65;;;;;;;27.45;39.40;100129.84;5089736;28;20021;-71
2022/08/26 05:41:39;;;;;;;11.65;8.02;;;;;;;27.50;39.26;100121.94;5083138;28;20135;-70
2022/08/26 05:44:08;;;;;;;13.10;8.48;;;;;;;27.51;39.35;100131.75;5069841;28;20040;-70
2022/08/26 05:46:35;;;;;;;11.52;7.80;;;;;;;27.56;38.90;100126.50;5082547;28;20083;-71
2022/08/26 05:49:02;;;;;;;10.73;7.78;;;;;;;27.59;39.13;100125.22;5089459;28;20087;-68
2022/08/26 05:51:28;;;;;;;12.30;7.38;;;;;;;27.52;38.97;100126.09;5089289;28;20272;-69
2022/08/26 05:53:54;;;;;;;10.38;7.30;;;;;;;27.41;39.59;100130.31;5089345;28;20046;-70
2022/08/26 05:56:23;;;;;;;14.00;7.65;;;;;;;27.23;39.84;100127.47;5089092;28;20028;-71
2022/08/26 05:58:49;;;;;;;14.43;7.75;;;;;;;27.11;40.01;100124.59;5089243;28;20088;-70
2022/08/26 06:01:19;;;;;;;10.60;7.85;;;;;;;27.04;40.24;100130.06;5089397;28;20028;-70
2022/08/26 06:03:47;;;;;;;12.57;8.40;;;;;;;26.98;39.81;100121.94;5089253;28;20024;-70
2022/08/26 06:06:19;;;;;;;9.57;7.38;;;;;;;26.94;39.72;100125.09;5089319;28;20163;-69
2022/08/26 06:08:45;;;;;;;11.48;8.02;;;;;;;26.93;39.62;100128.03;5088952;28;20035;-69
2022/08/26 06:11:13;;;;;;;13.48;8.25;;;;;;;26.91;39.76;100125.50;5089258;28;20050;-71
2022/08/26 06:13:39;;;;;;;9.25;7.22;;;;;;;26.92;39.82;100126.34;5088804;28;20055;-72
2022/08/26 06:16:09;;;;;;;9.77;7.60;;;;;;;26.91;39.93;100130.94;5088777;28;20036;-70
2022/08/26 06:18:37;;;;;;;;;;;;;;;26.85;40.13;100133.69;5089349;28;20029;-69
2022/08/26 06:21:14;;;;;;;11.98;8.02;;;;;;;26.86;40.04;100130.78;5079233;28;19987;-71
2022/08/26 06:26:24;;;;;;;10.70;7.13;;;;;;;26.90;40.01;100129.31;5088952;28;20023;-69
2022/08/26 06:28:50;;;;;;;10.43;8.05;;;;;;;26.92;40.03;100137.22;5088821;28;20020;-68
2022/08/26 06:31:15;;;;;;;12.93;7.47;;;;;;;26.94;39.31;100137.84;5082904;28;20016;-69
2022/08/26 06:33:43;;;;;;;10.40;7.63;;;;;;;26.94;39.55;100127.81;5088348;28;20085;-70
2022/08/26 06:36:08;;;;;;;10.15;7.70;;;;;;;26.96;39.17;100138.47;5088800;28;20036;-68
2022/08/26 06:38:33;;;;;;;9.35;7.68;;;;;;;26.99;39.40;100138.00;5088549;28;20035;-71
2022/08/26 06:40:59;;;;;;;11.55;7.85;;;;;;;26.97;39.58;100123.84;5088530;28;20024;-68
2022/08/26 06:43:27;;;;;;;9.90;7.43;;;;;;;27.00;39.48;100133.44;5087658;28;20260;-69
2022/08/26 06:46:08;;;;;;;9.73;7.50;;;;;;;27.01;39.29;100143.25;5087972;28;20230;-68
2022/08/26 06:48:33;;;;;;;8.98;7.45;;;;;;;27.02;39.62;100142.19;5088120;28;20032;-71
2022/08/26 06:51:29;;;;;;;8.57;7.43;;;;;;;27.02;39.34;100134.88;5088165;28;20026;-72
2022/08/26 06:53:58;;;;;;;7.55;6.60;;;;;;;27.03;39.04;100136.53;5087016;28;20047;-71
2022/08/26 06:56:35;;;;;;;13.63;7.60;;;;;;;27.03;39.08;100131.13;5088409;28;20024;-72
2022/08/26 06:59:01;;;;;;;17.60;7.53;;;;;;;27.03;38.70;100131.13;5087425;28;20233;-70
2022/08/26 07:01:30;;;;;;;15.05;7.65;;;;;;;27.06;38.82;100127.97;5088006;28;20029;-72
2022/08/26 07:03:58;;;;;;;10.48;7.47;;;;;;;27.05;38.73;100134.44;5088080;28;20008;-71
2022/08/26 07:06:26;;;;;;;11.90;7.32;;;;;;;27.08;38.67;100135.88;5088110;28;20043;-71
2022/08/26 07:09:00;;;;;;;15.48;7.60;;;;;;;27.08;37.55;100123.16;5087722;28;20028;-70
2022/08/26 07:11:26;;;;;;;10.55;7.10;;;;;;;27.12;37.94;100129.00;5088362;28;20028;-69
2022/08/26 07:13:52;;;;;;;14.88;7.15;;;;;;;27.15;38.17;100125.00;5087870;28;20093;-71
2022/08/26 07:16:18;;;;;;;12.27;6.97;;;;;;;27.16;38.22;100123.94;5087981;28;20233;-70
2022/08/26 07:18:44;;;;;;;12.77;7.18;;;;;;;27.17;38.33;100129.19;5086921;28;20172;-69
2022/08/26 07:21:12;;;;;;;11.18;7.28;;;;;;;27.18;38.25;100130.84;5073449;28;20041;-71
2022/08/26 07:23:38;;;;;;;9.68;7.47;;;;;;;27.19;38.64;100127.09;5067810;28;20280;-68
2022/08/26 07:26:11;;;;;;;15.60;8.60;;;;;;;27.21;38.53;100129.56;5050323;28;20020;-69
2022/08/26 07:28:37;;;;;;;18.98;9.68;;;;;;;27.22;38.87;100123.09;5067981;28;20248;-69
2022/08/26 07:31:05;;;;;;;21.17;10.68;;;;;;;27.24;38.73;100132.69;5087464;28;20043;-69
2022/08/26 07:33:31;;;;;;;20.13;9.75;;;;;;;27.25;38.99;100130.81;5087378;28;20312;-70
2022/08/26 07:35:56;;;;;;;17.90;9.32;;;;;;;27.29;38.89;100134.75;5087577;28;20036;-69
2022/08/26 07:38:21;;;;;;;26.77;9.43;;;;;;;27.30;38.83;100133.69;5087644;28;20036;-70
2022/08/26 07:40:47;;;;;;;16.33;8.88;;;;;;;27.28;38.38;100127.66;5087322;28;20095;-71
2022/08/26 07:43:13;;;;;;;14.95;8.45;;;;;;;27.31;38.27;100137.25;5087051;28;20027;-68
2022/08/26 07:45:38;;;;;;;13.82;8.63;;;;;;;27.32;38.18;100123.44;5087392;28;20134;-70
2022/08/26 07:48:04;;;;;;;14.52;8.40;;;;;;;27.33;38.20;100129.75;5087554;28;20077;-71
2022/08/26 07:50:31;;;;;;;14.15;7.55;;;;;;;27.35;37.65;100125.75;5087591;28;20087;-71
2022/08/26 07:52:57;;;;;;;16.05;8.35;;;;;;;27.36;37.64;100124.69;5087133;28;20107;-67
2022/08/26 07:55:22;;;;;;;13.10;7.75;;;;;;;27.36;38.10;100127.41;5087103;28;20260;-69
2022/08/26 07:57:48;;;;;;;11.60;7.70;;;;;;;27.38;37.21;100125.31;5087130;28;20016;-70
2022/08/26 08:00:15;;;;;;;14.93;7.55;;;;;;;27.40;37.38;100115.06;5073326;28;20092;-70
2022/08/26 08:02:43;;;;;;;14.18;7.22;;;;;;;27.43;36.81;100121.94;5067175;28;20040;-70
2022/08/26 08:05:10;;;;;;;11.40;7.70;;;;;;;27.45;36.95;100122.59;5082600;28;20016;-70
2022/08/26 08:07:37;;;;;;;16.13;8.52;;;;;;;27.46;36.48;100117.97;5086880;28;20025;-68
2022/08/26 08:10:03;;;;;;;17.67;6.95;;;;;;;27.47;36.73;100117.78;5069856;28;20261;-68
2022/08/26 08:12:28;;;;;;;10.60;7.57;;;;;;;27.48;36.47;100115.88;5086747;28;20024;-70
2022/08/26 08:14:54;;;;;;;12.45;7.60;;;;;;;27.47;36.89;100114.22;5087191;28;20023;-69
2022/08/26 08:17:19;;;;;;;9.05;7.35;;;;;;;27.49;36.94;100118.38;5086520;28;20028;-70
2022/08/26 08:19:45;;;;;;;13.20;7.13;;;;;;;27.49;37.14;100120.25;5086864;28;20165;-69
2022/08/26 08:22:10;;;;;;;11.73;7.57;;;;;;;27.49;36.90;100114.81;5087192;28;20040;-69
2022/08/26 08:24:36;;;;;;;9.05;7.18;;;;;;;27.49;37.02;100114.81;5087262;28;20031;-68
2022/08/26 08:27:02;;;;;;;9.38;7.38;;;;;;;27.50;36.95;100116.50;5086744;28;20260;-70
2022/08/26 08:29:28;;;;;;;11.32;6.97;;;;;;;27.51;36.90;100118.16;5086467;28;20245;-68
2022/08/26 08:31:58;;;;;;;9.90;6.97;;;;;;;27.50;36.87;100117.31;5076853;28;20138;-69
2022/08/26 08:34:25;;;;;;;10.80;7.10;;;;;;;27.50;36.68;100122.75;5074375;28;20020;-69
2022/08/26 08:36:51;;;;;;;7.70;6.93;;;;;;;27.51;37.08;100124.41;5087170;28;20225;-69
2022/08/26 08:39:17;;;;;;;11.25;7.22;;;;;;;27.53;36.87;100113.34;5087067;28;20036;-68
2022/08/26 08:41:57;;;;;;;13.27;7.57;;;;;;;27.53;36.40;100116.06;5086643;28;20047;-70
2022/08/26 08:44:24;;;;;;;10.77;6.97;;;;;;;27.53;36.76;100107.91;5088651;28;20032;-70
2022/08/26 08:46:57;;;;;;;8.80;7.30;;;;;;;27.55;36.40;100111.25;5090545;28;20100;-70
2022/08/26 08:49:24;;;;;;;8.98;6.65;;;;;;;27.55;36.37;100097.66;5088341;28;20040;-69
2022/08/26 08:52:16;;;;;;;9.07;7.47;;;;;;;27.56;36.33;100111.00;5086433;28;20055;-70
2022/08/26 08:54:41;;;;;;;13.55;7.35;;;;;;;27.58;36.29;100116.22;5086632;28;20025;-69
2022/08/26 08:57:17;;;;;;;11.48;6.95;;;;;;;27.58;36.38;100097.19;5090356;28;20093;-69
2022/08/26 08:59:53;;;;;;;10.00;8.00;;;;;;;27.59;36.16;100098.03;5077961;28;20048;-69
2022/08/26 09:02:18;;;;;;;11.68;7.47;;;;;;;27.60;36.12;100105.97;5070415;28;20025;-70
2022/08/26 09:04:46;;;;;;;8.68;7.68;;;;;;;27.60;36.13;100105.97;5077750;28;20016;-69
2022/08/26 09:07:19;;;;;;;15.13;8.20;;;;;;;27.61;35.53;100101.38;5090714;28;20029;-69
2022/08/26 09:09:53;;;;;;;9.57;7.38;;;;;;;27.67;34.71;100111.34;5090482;28;20070;-72
2022/08/26 09:12:24;;;;;;;11.48;8.07;;;;;;;27.71;35.03;100101.72;5090361;28;20048;-69
2022/08/26 09:14:49;;;;;;;;;;;;;;;27.62;35.27;100097.59;5090431;28;20091;-68
2022/08/26 09:17:44;;;;;;;11.60;6.80;;;;;;;27.63;35.32;100100.09;5090517;28;19904;-69
2022/08/26 09:21:04;;;;;;;10.57;7.38;;;;;;;27.67;34.57;100103.19;5074539;28;20094;-69
2022/08/26 09:23:33;;;;;;;11.30;7.30;;;;;;;27.70;34.58;100103.59;5048561;28;20044;-70
2022/08/26 09:26:02;;;;;;;9.20;7.88;;;;;;;27.74;34.72;100105.88;5069585;28;20037;-69
2022/08/26 09:28:30;;;;;;;14.68;7.43;;;;;;;27.71;34.95;100099.84;5070619;28;20074;-70
2022/08/26 09:31:19;;;;;;;9.63;7.25;;;;;;;27.72;34.93;100096.03;5089303;28;20039;-69
2022/08/26 09:33:45;;;;;;;13.85;8.13;;;;;;;27.75;34.38;100091.22;5089862;28;20027;-68
2022/08/26 09:36:14;;;;;;;10.80;7.32;;;;;;;27.76;34.69;100096.44;5089714;28;20032;-67
2022/08/26 09:38:40;;;;;;;9.68;7.38;;;;;;;27.76;34.45;100088.28;5089658;28;20032;-69
2022/08/26 09:41:23;;;;;;;10.20;6.82;;;;;;;27.76;34.92;100084.72;5079898;28;20025;-71
2022/08/26 09:44:19;;;;;;;11.70;7.40;;;;;;;27.76;34.37;100092.88;5075510;28;20004;-70
2022/08/26 09:46:53;;;;;;;9.77;7.55;;;;;;;27.75;34.61;100089.34;5088190;28;20017;-71
2022/08/26 09:49:39;;;;;;;16.55;7.85;;;;;;;27.74;34.63;100089.56;5089349;28;20021;-71
2022/08/26 09:52:16;;;;;;;14.57;7.95;;;;;;;27.73;34.46;100086.00;5089894;28;20031;-71
2022/08/26 09:54:43;;;;;;;11.55;8.45;;;;;;;27.73;34.61;100080.56;5087987;28;20218;-69
2022/08/26 09:57:30;;;;;;;11.88;8.68;;;;;;;27.76;34.53;100090.16;5088974;28;20035;-68
2022/08/26 09:59:55;;;;;;;11.73;7.40;;;;;;;27.79;34.05;100089.72;5089422;28;20079;-68
2022/08/26 10:02:33;;;;;;;15.02;8.20;;;;;;;27.82;33.86;100075.69;5089400;28;20029;-68
2022/08/26 10:05:02;;;;;;;15.05;7.78;;;;;;;27.84;33.67;100079.03;5089208;28;20130;-70
2022/08/26 10:07:51;;;;;;;10.63;7.20;;;;;;;27.84;34.03;100076.31;5088634;28;20020;-70
2022/08/26 10:10:37;;;;;;;14.27;7.63;;;;;;;27.84;33.87;100084.47;5081443;28;20028;-68
2022/08/26 10:13:12;;;;;;;12.20;8.60;;;;;;;27.83;34.25;100077.38;5089016;28;20047;-71
2022/08/26 10:15:53;;;;;;;11.95;7.75;;;;;;;27.81;33.98;100077.56;5089223;28;20145;-67
2022/08/26 10:18:24;;;;;;;13.40;6.93;;;;;;;27.82;34.03;100078.41;5088766;28;20032;-68
2022/08/26 10:21:01;;;;;;;11.70;7.35;;;;;;;27.84;33.22;100077.13;5089112;28;20028;-68
2022/08/26 10:23:31;;;;;;;9.77;7.45;;;;;;;27.86;33.30;100069.59;5089003;28;20226;-68
2022/08/26 10:26:04;;;;;;;11.00;7.55;;;;;;;27.89;32.97;100064.75;5070960;28;20243;-69
2022/08/26 10:28:47;;;;;;;8.93;7.18;;;;;;;27.94;32.91;100064.94;5088054;28;20025;-72
2022/08/26 10:31:25;;;;;;;10.13;7.13;;;;;;;27.96;32.94;100060.94;5085813;28;20032;-70
2022/08/26 10:33:52;;;;;;;12.23;6.85;;;;;;;27.95;32.98;100064.72;5088686;28;20111;-70
2022/08/26 10:39:07;;;;;;;11.43;7.57;;;;;;;27.96;32.68;100058.22;5088426;28;20031;-75
2022/08/26 10:41:39;;;;;;;10.95;7.13;;;;;;;27.99;32.81;100060.50;5088733;28;20256;-70
2022/08/26 10:44:08;;;;;;;10.98;6.95;;;;;;;28.01;31.87;100058.34;5088157;28;20223;-72
2022/08/26 10:46:41;;;;;;;9.30;6.97;;;;;;;28.08;32.11;100054.75;5088294;28;20028;-67
2022/08/26 10:49:14;;;;;;;10.18;7.30;;;;;;;28.07;32.25;100051.22;5088410;28;20016;-68
2022/08/26 10:51:48;;;;;;;13.20;7.63;;;;;;;28.07;32.31;100045.78;5088458;28;20024;-68
2022/08/26 10:54:21;;;;;;;13.52;8.05;;;;;;;28.06;32.35;100048.69;5087812;28;20092;-72
2022/08/26 10:57:03;;;;;;;7.95;6.68;;;;;;;28.06;31.96;100051.41;5085899;28;20134;-72
2022/08/26 10:59:50;;;;;;;11.27;6.55;;;;;;;28.03;31.23;100039.94;5084732;28;20029;-69
2022/08/26 11:02:44;;;;;;;9.52;6.72;;;;;;;28.04;32.37;100040.78;5088207;28;20168;-70
2022/08/26 11:05:22;;;;;;;10.63;7.28;;;;;;;28.02;32.37;100048.31;5088211;28;20016;-68
2022/08/26 11:07:53;;;;;;;10.93;6.32;;;;;;;27.97;32.38;100042.72;5088354;28;20252;-70
2022/08/26 11:10:18;;;;;;;12.80;6.70;;;;;;;27.96;31.86;100043.75;5087843;28;20145;-71
2022/08/26 11:12:44;;;;;;;7.43;6.72;;;;;;;27.95;31.93;100040.22;5087652;28;20035;-72
2022/08/26 11:15:35;;;;;;;9.18;5.65;;;;;;;27.94;30.74;100035.03;5087397;28;20081;-70
2022/08/26 11:18:02;;;;;;;;;;;;;;;27.88;31.75;100034.00;5088162;28;20068;-69
2022/08/26 11:20:35;;;;;;;8.18;6.53;;;;;;;27.92;31.57;100034.41;5080354;28;20138;-70
2022/08/26 11:23:27;;;;;;;11.82;6.35;;;;;;;27.93;31.67;100039.63;5086648;28;20100;-67
2022/08/26 11:25:55;;;;;;;10.13;6.55;;;;;;;27.95;31.98;100025.78;5077916;28;20161;-68
2022/08/26 11:28:44;;;;;;;9.07;6.53;;;;;;;27.94;31.48;100029.59;5083067;28;20060;-68
2022/08/26 11:31:24;;;;;;;7.60;6.30;;;;;;;27.97;30.86;100026.41;5087406;28;20248;-71
2022/08/26 11:33:57;;;;;;;7.82;6.78;;;;;;;28.04;30.64;100024.44;5086760;28;20137;-71
2022/08/26 11:36:44;;;;;;;10.27;7.13;;;;;;;28.09;31.08;100026.50;5086196;28;20036;-70